sensor_id;sensor_type;location;lat;lon;timestamp;P1;durP1;ratioP1;P2;durP2;ratioP2
35126;SDS011;21300;52.006;5.798;2023-03-26T00:01:27;12.80;;;2.88;;
35126;SDS011;21300;52.006;5.798;2023-03-26T00:03:54;14.27;;;2.38;;
35126;SDS011;21300;52.006;5.798;2023-03-26T00:06:25;16.33;;;2.47;;
35126;SDS011;21300;52.006;5.798;2023-03-26T00:08:53;15.23;;;2.60;;
35126;SDS011;21300;52.006;5.798;2023-03-26T00:11:21;8.68;;;2.10;;
35126;SDS011;21300;52.006;5.798;2023-03-26T00:13:48;18.33;;;2.92;;
35126;SDS011;21300;52.006;5.798;2023-03-26T00:16:14;15.10;;;2.72;;
35126;SDS011;21300;52.006;5.798;2023-03-26T00:18:42;14.50;;;2.63;;
35126;SDS011;21300;52.006;5.798;2023-03-26T00:21:09;18.95;;;2.95;;
35126;SDS011;21300;52.006;5.798;2023-03-26T00:23:37;22.08;;;3.15;;
35126;SDS011;21300;52.006;5.798;2023-03-26T00:26:03;21.50;;;3.17;;
35126;SDS011;21300;52.006;5.798;2023-03-26T00:28:35;21.08;;;3.80;;
35126;SDS011;21300;52.006;5.798;2023-03-26T00:31:03;26.48;;;3.28;;
35126;SDS011;21300;52.006;5.798;2023-03-26T00:33:30;23.25;;;4.25;;
35126;SDS011;21300;52.006;5.798;2023-03-26T00:35:56;26.55;;;4.35;;
35126;SDS011;21300;52.006;5.798;2023-03-26T00:38:25;14.52;;;2.72;;
35126;SDS011;21300;52.006;5.798;2023-03-26T00:40:52;22.52;;;3.72;;
35126;SDS011;21300;52.006;5.798;2023-03-26T00:43:18;26.88;;;3.95;;
35126;SDS011;21300;52.006;5.798;2023-03-26T00:45:50;21.23;;;3.40;;
35126;SDS011;21300;52.006;5.798;2023-03-26T00:48:18;25.48;;;4.90;;
35126;SDS011;21300;52.006;5.798;2023-03-26T00:50:45;30.50;;;5.07;;
35126;SDS011;21300;52.006;5.798;2023-03-26T00:53:12;24.13;;;4.60;;
35126;SDS011;21300;52.006;5.798;2023-03-26T00:55:39;26.52;;;4.75;;
35126;SDS011;21300;52.006;5.798;2023-03-26T00:58:05;28.58;;;4.22;;
35126;SDS011;21300;52.006;5.798;2023-03-26T01:00:34;25.75;;;4.53;;
35126;SDS011;21300;52.006;5.798;2023-03-26T01:03:01;27.00;;;4.20;;
35126;SDS011;21300;52.006;5.798;2023-03-26T01:08:00;36.22;;;5.95;;
35126;SDS011;21300;52.006;5.798;2023-03-26T01:10:42;30.92;;;5.00;;
35126;SDS011;21300;52.006;5.798;2023-03-26T01:13:14;31.55;;;7.05;;
35126;SDS011;21300;52.006;5.798;2023-03-26T01:15:41;29.08;;;5.30;;
35126;SDS011;21300;52.006;5.798;2023-03-26T01:18:08;30.40;;;6.28;;
35126;SDS011;21300;52.006;5.798;2023-03-26T01:20:37;26.02;;;4.35;;
35126;SDS011;21300;52.006;5.798;2023-03-26T01:23:11;33.47;;;5.70;;
35126;SDS011;21300;52.006;5.798;2023-03-26T01:25:40;29.70;;;5.82;;
35126;SDS011;21300;52.006;5.798;2023-03-26T01:28:13;25.92;;;5.28;;
35126;SDS011;21300;52.006;5.798;2023-03-26T01:30:42;39.40;;;6.90;;
35126;SDS011;21300;52.006;5.798;2023-03-26T01:33:24;34.95;;;5.68;;
35126;SDS011;21300;52.006;5.798;2023-03-26T01:35:59;34.42;;;7.03;;
35126;SDS011;21300;52.006;5.798;2023-03-26T01:46:46;40.60;;;6.45;;
35126;SDS011;21300;52.006;5.798;2023-03-26T01:49:12;29.58;;;5.30;;
35126;SDS011;21300;52.006;5.798;2023-03-26T01:51:38;43.17;;;7.45;;
35126;SDS011;21300;52.006;5.798;2023-03-26T01:54:06;39.75;;;7.25;;
35126;SDS011;21300;52.006;5.798;2023-03-26T02:02:22;43.00;;;7.47;;
35126;SDS011;21300;52.006;5.798;2023-03-26T02:05:21;37.83;;;7.10;;
35126;SDS011;21300;52.006;5.798;2023-03-26T02:08:16;40.60;;;7.30;;
35126;SDS011;21300;52.006;5.798;2023-03-26T02:10:59;31.45;;;6.38;;
35126;SDS011;21300;52.006;5.798;2023-03-26T02:13:35;31.00;;;6.78;;
35126;SDS011;21300;52.006;5.798;2023-03-26T02:16:02;30.42;;;5.60;;
35126;SDS011;21300;52.006;5.798;2023-03-26T02:18:29;35.88;;;6.75;;
35126;SDS011;21300;52.006;5.798;2023-03-26T02:21:13;28.63;;;6.38;;
35126;SDS011;21300;52.006;5.798;2023-03-26T02:23:44;35.15;;;8.18;;
35126;SDS011;21300;52.006;5.798;2023-03-26T02:26:12;33.95;;;6.57;;
35126;SDS011;21300;52.006;5.798;2023-03-26T02:28:39;32.35;;;6.28;;
35126;SDS011;21300;52.006;5.798;2023-03-26T02:31:05;38.38;;;6.50;;
35126;SDS011;21300;52.006;5.798;2023-03-26T02:33:33;36.65;;;6.72;;
35126;SDS011;21300;52.006;5.798;2023-03-26T02:35:59;38.67;;;6.55;;
35126;SDS011;21300;52.006;5.798;2023-03-26T02:38:28;42.67;;;7.20;;
35126;SDS011;21300;52.006;5.798;2023-03-26T02:40:59;34.47;;;6.25;;
35126;SDS011;21300;52.006;5.798;2023-03-26T02:43:25;36.78;;;6.63;;
35126;SDS011;21300;52.006;5.798;2023-03-26T02:45:51;40.35;;;5.60;;
35126;SDS011;21300;52.006;5.798;2023-03-26T02:48:17;41.50;;;6.53;;
35126;SDS011;21300;52.006;5.798;2023-03-26T02:50:43;34.85;;;6.28;;
35126;SDS011;21300;52.006;5.798;2023-03-26T02:53:10;46.83;;;6.70;;
35126;SDS011;21300;52.006;5.798;2023-03-26T02:55:36;46.33;;;6.60;;
35126;SDS011;21300;52.006;5.798;2023-03-26T02:58:01;38.67;;;6.97;;
35126;SDS011;21300;52.006;5.798;2023-03-26T03:00:27;38.63;;;7.30;;
35126;SDS011;21300;52.006;5.798;2023-03-26T03:02:53;35.55;;;7.22;;
35126;SDS011;21300;52.006;5.798;2023-03-26T03:05:22;44.13;;;8.30;;
35126;SDS011;21300;52.006;5.798;2023-03-26T03:07:50;37.10;;;7.40;;
35126;SDS011;21300;52.006;5.798;2023-03-26T03:10:16;37.38;;;7.43;;
35126;SDS011;21300;52.006;5.798;2023-03-26T03:12:45;44.22;;;8.40;;
35126;SDS011;21300;52.006;5.798;2023-03-26T03:15:11;36.33;;;8.32;;
35126;SDS011;21300;52.006;5.798;2023-03-26T03:17:38;31.23;;;7.25;;
35126;SDS011;21300;52.006;5.798;2023-03-26T03:20:04;30.58;;;8.07;;
35126;SDS011;21300;52.006;5.798;2023-03-26T03:22:33;43.60;;;7.22;;
35126;SDS011;21300;52.006;5.798;2023-03-26T03:25:00;41.70;;;9.18;;
35126;SDS011;21300;52.006;5.798;2023-03-26T03:27:26;43.88;;;9.80;;
35126;SDS011;21300;52.006;5.798;2023-03-26T03:29:51;43.35;;;9.57;;
35126;SDS011;21300;52.006;5.798;2023-03-26T03:32:19;36.60;;;9.52;;
35126;SDS011;21300;52.006;5.798;2023-03-26T03:34:46;44.38;;;9.27;;
35126;SDS011;21300;52.006;5.798;2023-03-26T03:37:14;40.75;;;9.07;;
35126;SDS011;21300;52.006;5.798;2023-03-26T03:39:41;38.03;;;9.75;;
35126;SDS011;21300;52.006;5.798;2023-03-26T03:42:06;45.35;;;9.40;;
35126;SDS011;21300;52.006;5.798;2023-03-26T03:44:32;35.85;;;8.07;;
35126;SDS011;21300;52.006;5.798;2023-03-26T03:46:57;35.40;;;9.27;;
35126;SDS011;21300;52.006;5.798;2023-03-26T03:49:23;36.90;;;8.90;;
35126;SDS011;21300;52.006;5.798;2023-03-26T03:51:48;41.50;;;8.75;;
35126;SDS011;21300;52.006;5.798;2023-03-26T03:54:14;34.60;;;8.70;;
35126;SDS011;21300;52.006;5.798;2023-03-26T03:56:39;47.20;;;9.98;;
35126;SDS011;21300;52.006;5.798;2023-03-26T03:59:05;42.63;;;7.95;;
35126;SDS011;21300;52.006;5.798;2023-03-26T04:01:32;34.78;;;7.72;;
35126;SDS011;21300;52.006;5.798;2023-03-26T04:03:58;38.83;;;7.65;;
35126;SDS011;21300;52.006;5.798;2023-03-26T04:06:24;35.70;;;7.97;;
35126;SDS011;21300;52.006;5.798;2023-03-26T04:08:50;41.58;;;7.82;;
35126;SDS011;21300;52.006;5.798;2023-03-26T04:11:16;32.05;;;8.02;;
35126;SDS011;21300;52.006;5.798;2023-03-26T04:13:42;33.38;;;7.13;;
35126;SDS011;21300;52.006;5.798;2023-03-26T04:16:08;42.60;;;7.88;;
35126;SDS011;21300;52.006;5.798;2023-03-26T04:18:35;37.03;;;7.55;;
35126;SDS011;21300;52.006;5.798;2023-03-26T04:21:02;38.08;;;7.38;;
35126;SDS011;21300;52.006;5.798;2023-03-26T04:23:29;45.97;;;7.70;;
35126;SDS011;21300;52.006;5.798;2023-03-26T04:25:55;34.75;;;7.35;;
35126;SDS011;21300;52.006;5.798;2023-03-26T04:28:29;36.97;;;8.35;;
35126;SDS011;21300;52.006;5.798;2023-03-26T04:31:07;34.42;;;7.40;;
35126;SDS011;21300;52.006;5.798;2023-03-26T04:33:36;39.40;;;7.55;;
35126;SDS011;21300;52.006;5.798;2023-03-26T04:36:05;34.70;;;7.10;;
35126;SDS011;21300;52.006;5.798;2023-03-26T04:38:33;34.78;;;6.60;;
35126;SDS011;21300;52.006;5.798;2023-03-26T04:41:05;31.35;;;6.97;;
35126;SDS011;21300;52.006;5.798;2023-03-26T04:43:31;29.20;;;6.45;;
35126;SDS011;21300;52.006;5.798;2023-03-26T04:46:00;29.85;;;6.25;;
35126;SDS011;21300;52.006;5.798;2023-03-26T04:48:27;37.85;;;6.55;;
35126;SDS011;21300;52.006;5.798;2023-03-26T04:50:54;37.28;;;6.60;;
35126;SDS011;21300;52.006;5.798;2023-03-26T04:53:20;42.17;;;6.65;;
35126;SDS011;21300;52.006;5.798;2023-03-26T04:55:50;30.60;;;6.72;;
35126;SDS011;21300;52.006;5.798;2023-03-26T04:58:21;30.83;;;6.15;;
35126;SDS011;21300;52.006;5.798;2023-03-26T05:00:57;31.85;;;6.22;;
35126;SDS011;21300;52.006;5.798;2023-03-26T05:03:25;43.17;;;6.38;;
35126;SDS011;21300;52.006;5.798;2023-03-26T05:05:59;29.90;;;5.38;;
35126;SDS011;21300;52.006;5.798;2023-03-26T05:08:26;31.10;;;5.50;;
35126;SDS011;21300;52.006;5.798;2023-03-26T05:10:53;29.98;;;6.10;;
35126;SDS011;21300;52.006;5.798;2023-03-26T05:13:20;26.13;;;5.57;;
35126;SDS011;21300;52.006;5.798;2023-03-26T05:15:46;37.67;;;6.07;;
35126;SDS011;21300;52.006;5.798;2023-03-26T05:18:12;28.45;;;5.30;;
35126;SDS011;21300;52.006;5.798;2023-03-26T05:20:38;30.58;;;5.43;;
35126;SDS011;21300;52.006;5.798;2023-03-26T05:23:04;30.23;;;5.50;;
35126;SDS011;21300;52.006;5.798;2023-03-26T05:25:31;26.77;;;6.00;;
35126;SDS011;21300;52.006;5.798;2023-03-26T05:27:58;22.40;;;6.13;;
35126;SDS011;21300;52.006;5.798;2023-03-26T05:30:25;25.25;;;5.13;;
35126;SDS011;21300;52.006;5.798;2023-03-26T05:32:51;24.10;;;5.32;;
35126;SDS011;21300;52.006;5.798;2023-03-26T05:35:16;25.63;;;5.45;;
35126;SDS011;21300;52.006;5.798;2023-03-26T05:37:43;24.30;;;5.13;;
35126;SDS011;21300;52.006;5.798;2023-03-26T05:40:10;20.48;;;5.05;;
35126;SDS011;21300;52.006;5.798;2023-03-26T05:42:38;32.17;;;6.32;;
35126;SDS011;21300;52.006;5.798;2023-03-26T05:45:08;27.67;;;5.53;;
35126;SDS011;21300;52.006;5.798;2023-03-26T05:47:35;26.17;;;5.15;;
35126;SDS011;21300;52.006;5.798;2023-03-26T05:50:01;40.35;;;6.30;;
35126;SDS011;21300;52.006;5.798;2023-03-26T05:52:27;27.88;;;5.60;;
35126;SDS011;21300;52.006;5.798;2023-03-26T05:54:52;32.20;;;5.65;;
35126;SDS011;21300;52.006;5.798;2023-03-26T05:57:18;30.25;;;5.07;;
35126;SDS011;21300;52.006;5.798;2023-03-26T05:59:46;31.35;;;4.97;;
35126;SDS011;21300;52.006;5.798;2023-03-26T06:02:12;33.03;;;6.47;;
35126;SDS011;21300;52.006;5.798;2023-03-26T06:04:38;28.33;;;5.38;;
35126;SDS011;21300;52.006;5.798;2023-03-26T06:07:05;27.60;;;5.40;;
35126;SDS011;21300;52.006;5.798;2023-03-26T06:09:34;27.13;;;5.57;;
35126;SDS011;21300;52.006;5.798;2023-03-26T06:12:03;29.88;;;4.82;;
35126;SDS011;21300;52.006;5.798;2023-03-26T06:14:29;29.58;;;5.45;;
35126;SDS011;21300;52.006;5.798;2023-03-26T06:16:55;31.80;;;5.72;;
35126;SDS011;21300;52.006;5.798;2023-03-26T06:19:21;29.73;;;4.80;;
35126;SDS011;21300;52.006;5.798;2023-03-26T06:21:47;36.83;;;6.65;;
35126;SDS011;21300;52.006;5.798;2023-03-26T06:24:12;31.20;;;5.78;;
35126;SDS011;21300;52.006;5.798;2023-03-26T06:26:40;27.95;;;4.60;;
35126;SDS011;21300;52.006;5.798;2023-03-26T06:29:06;30.45;;;6.10;;
35126;SDS011;21300;52.006;5.798;2023-03-26T06:31:32;27.38;;;5.82;;
35126;SDS011;21300;52.006;5.798;2023-03-26T06:33:58;28.38;;;6.13;;
35126;SDS011;21300;52.006;5.798;2023-03-26T06:36:23;29.10;;;5.82;;
35126;SDS011;21300;52.006;5.798;2023-03-26T06:38:49;37.83;;;5.50;;
35126;SDS011;21300;52.006;5.798;2023-03-26T06:41:14;22.73;;;4.57;;
35126;SDS011;21300;52.006;5.798;2023-03-26T06:43:40;27.42;;;4.70;;
35126;SDS011;21300;52.006;5.798;2023-03-26T06:46:05;28.33;;;5.35;;
35126;SDS011;21300;52.006;5.798;2023-03-26T06:48:31;30.65;;;5.38;;
35126;SDS011;21300;52.006;5.798;2023-03-26T06:50:57;24.95;;;4.63;;
35126;SDS011;21300;52.006;5.798;2023-03-26T06:53:23;26.63;;;5.32;;
35126;SDS011;21300;52.006;5.798;2023-03-26T06:55:48;31.27;;;5.18;;
35126;SDS011;21300;52.006;5.798;2023-03-26T06:58:14;29.65;;;6.07;;
35126;SDS011;21300;52.006;5.798;2023-03-26T07:00:40;31.23;;;6.85;;
35126;SDS011;21300;52.006;5.798;2023-03-26T07:03:06;35.50;;;5.47;;
35126;SDS011;21300;52.006;5.798;2023-03-26T07:05:32;28.00;;;5.25;;
35126;SDS011;21300;52.006;5.798;2023-03-26T07:07:58;35.28;;;6.25;;
35126;SDS011;21300;52.006;5.798;2023-03-26T07:10:23;29.45;;;5.80;;
35126;SDS011;21300;52.006;5.798;2023-03-26T07:12:49;34.05;;;7.32;;
35126;SDS011;21300;52.006;5.798;2023-03-26T07:15:15;31.52;;;5.57;;
35126;SDS011;21300;52.006;5.798;2023-03-26T07:17:40;25.08;;;6.03;;
35126;SDS011;21300;52.006;5.798;2023-03-26T07:20:06;28.27;;;6.28;;
35126;SDS011;21300;52.006;5.798;2023-03-26T07:22:32;38.28;;;7.20;;
35126;SDS011;21300;52.006;5.798;2023-03-26T07:25:00;35.95;;;7.47;;
35126;SDS011;21300;52.006;5.798;2023-03-26T07:27:36;26.65;;;6.13;;
35126;SDS011;21300;52.006;5.798;2023-03-26T07:30:11;35.63;;;6.57;;
35126;SDS011;21300;52.006;5.798;2023-03-26T07:35:15;32.15;;;5.95;;
35126;SDS011;21300;52.006;5.798;2023-03-26T07:40:46;29.73;;;6.63;;
35126;SDS011;21300;52.006;5.798;2023-03-26T07:46:29;33.72;;;6.70;;
35126;SDS011;21300;52.006;5.798;2023-03-26T07:48:56;23.50;;;5.55;;
35126;SDS011;21300;52.006;5.798;2023-03-26T07:51:24;34.20;;;6.28;;
35126;SDS011;21300;52.006;5.798;2023-03-26T07:53:50;33.08;;;8.23;;
35126;SDS011;21300;52.006;5.798;2023-03-26T07:56:17;36.60;;;7.60;;
35126;SDS011;21300;52.006;5.798;2023-03-26T08:01:49;31.75;;;7.60;;
35126;SDS011;21300;52.006;5.798;2023-03-26T08:10:52;37.92;;;8.30;;
35126;SDS011;21300;52.006;5.798;2023-03-26T08:16:16;35.40;;;8.13;;
35126;SDS011;21300;52.006;5.798;2023-03-26T08:18:58;28.70;;;7.45;;
35126;SDS011;21300;52.006;5.798;2023-03-26T08:24:22;40.67;;;7.55;;
35126;SDS011;21300;52.006;5.798;2023-03-26T08:32:33;30.13;;;6.35;;
35126;SDS011;21300;52.006;5.798;2023-03-26T08:34:59;34.40;;;7.25;;
35126;SDS011;21300;52.006;5.798;2023-03-26T08:37:25;32.55;;;7.00;;
35126;SDS011;21300;52.006;5.798;2023-03-26T08:39:51;37.00;;;7.45;;
35126;SDS011;21300;52.006;5.798;2023-03-26T08:42:22;35.05;;;6.85;;
35126;SDS011;21300;52.006;5.798;2023-03-26T08:50:46;36.58;;;6.90;;
35126;SDS011;21300;52.006;5.798;2023-03-26T08:53:47;27.63;;;6.72;;
35126;SDS011;21300;52.006;5.798;2023-03-26T08:56:49;33.28;;;6.55;;
35126;SDS011;21300;52.006;5.798;2023-03-26T08:59:58;34.20;;;6.78;;
35126;SDS011;21300;52.006;5.798;2023-03-26T09:02:30;27.27;;;6.50;;
35126;SDS011;21300;52.006;5.798;2023-03-26T09:31:26;22.25;;;7.25;;
35126;SDS011;21300;52.006;5.798;2023-03-26T09:40:20;20.35;;;7.95;;
35126;SDS011;21300;52.006;5.798;2023-03-26T09:45:36;22.48;;;8.27;;
35126;SDS011;21300;52.006;5.798;2023-03-26T09:51:04;19.63;;;8.30;;
35126;SDS011;21300;52.006;5.798;2023-03-26T09:53:44;20.63;;;8.10;;
35126;SDS011;21300;52.006;5.798;2023-03-26T10:02:17;19.77;;;6.95;;
35126;SDS011;21300;52.006;5.798;2023-03-26T10:10:42;18.95;;;7.22;;
35126;SDS011;21300;52.006;5.798;2023-03-26T10:18:37;15.90;;;7.05;;
35126;SDS011;21300;52.006;5.798;2023-03-26T10:24:09;17.35;;;7.45;;
35126;SDS011;21300;52.006;5.798;2023-03-26T10:26:52;19.48;;;7.25;;
35126;SDS011;21300;52.006;5.798;2023-03-26T10:33:01;19.15;;;7.40;;
35126;SDS011;21300;52.006;5.798;2023-03-26T10:40:57;15.68;;;6.80;;
35126;SDS011;21300;52.006;5.798;2023-03-26T10:54:14;13.27;;;5.05;;
35126;SDS011;21300;52.006;5.798;2023-03-26T10:57:03;13.35;;;5.28;;
35126;SDS011;21300;52.006;5.798;2023-03-26T10:59:36;13.02;;;4.50;;
35126;SDS011;21300;52.006;5.798;2023-03-26T11:02:17;11.73;;;4.97;;
35126;SDS011;21300;52.006;5.798;2023-03-26T11:07:48;11.65;;;6.43;;
35126;SDS011;21300;52.006;5.798;2023-03-26T11:10:33;16.25;;;6.80;;
35126;SDS011;21300;52.006;5.798;2023-03-26T11:16:09;16.60;;;7.88;;
35126;SDS011;21300;52.006;5.798;2023-03-26T11:21:33;17.83;;;9.00;;
35126;SDS011;21300;52.006;5.798;2023-03-26T11:26:39;14.68;;;9.23;;
35126;SDS011;21300;52.006;5.798;2023-03-26T11:31:55;18.58;;;8.77;;
35126;SDS011;21300;52.006;5.798;2023-03-26T11:34:31;22.00;;;10.23;;
35126;SDS011;21300;52.006;5.798;2023-03-26T11:37:02;19.52;;;8.85;;
35126;SDS011;21300;52.006;5.798;2023-03-26T11:39:39;25.98;;;9.65;;
35126;SDS011;21300;52.006;5.798;2023-03-26T11:42:25;22.73;;;9.70;;
35126;SDS011;21300;52.006;5.798;2023-03-26T11:47:22;24.48;;;10.75;;
35126;SDS011;21300;52.006;5.798;2023-03-26T11:49:54;22.85;;;9.23;;
35126;SDS011;21300;52.006;5.798;2023-03-26T11:52:24;18.23;;;8.73;;
35126;SDS011;21300;52.006;5.798;2023-03-26T11:54:50;25.52;;;9.27;;
35126;SDS011;21300;52.006;5.798;2023-03-26T11:57:20;21.27;;;8.43;;
35126;SDS011;21300;52.006;5.798;2023-03-26T12:02:28;20.45;;;7.30;;
35126;SDS011;21300;52.006;5.798;2023-03-26T12:05:11;19.60;;;7.78;;
35126;SDS011;21300;52.006;5.798;2023-03-26T12:07:44;21.08;;;6.95;;
35126;SDS011;21300;52.006;5.798;2023-03-26T12:10:20;11.27;;;4.40;;
35126;SDS011;21300;52.006;5.798;2023-03-26T12:12:56;20.17;;;7.57;;
35126;SDS011;21300;52.006;5.798;2023-03-26T12:15:24;24.05;;;6.65;;
35126;SDS011;21300;52.006;5.798;2023-03-26T12:17:51;22.40;;;7.00;;
35126;SDS011;21300;52.006;5.798;2023-03-26T12:22:59;23.35;;;6.88;;
35126;SDS011;21300;52.006;5.798;2023-03-26T12:28:01;14.05;;;5.65;;
35126;SDS011;21300;52.006;5.798;2023-03-26T12:30:30;19.90;;;5.70;;
35126;SDS011;21300;52.006;5.798;2023-03-26T12:33:05;17.83;;;4.82;;
35126;SDS011;21300;52.006;5.798;2023-03-26T12:35:39;23.45;;;5.82;;
35126;SDS011;21300;52.006;5.798;2023-03-26T12:38:12;24.02;;;5.85;;
35126;SDS011;21300;52.006;5.798;2023-03-26T12:41:10;17.65;;;4.22;;
35126;SDS011;21300;52.006;5.798;2023-03-26T12:48:47;18.30;;;5.10;;
35126;SDS011;21300;52.006;5.798;2023-03-26T13:07:39;21.83;;;4.72;;
35126;SDS011;21300;52.006;5.798;2023-03-26T13:13:56;21.40;;;4.60;;
35126;SDS011;21300;52.006;5.798;2023-03-26T13:19:14;12.90;;;4.25;;
35126;SDS011;21300;52.006;5.798;2023-03-26T13:27:43;21.15;;;4.72;;
35126;SDS011;21300;52.006;5.798;2023-03-26T13:32:43;16.52;;;4.20;;
35126;SDS011;21300;52.006;5.798;2023-03-26T13:35:19;15.68;;;4.22;;
35126;SDS011;21300;52.006;5.798;2023-03-26T13:41:03;17.63;;;4.50;;
35126;SDS011;21300;52.006;5.798;2023-03-26T13:46:31;17.85;;;3.78;;
35126;SDS011;21300;52.006;5.798;2023-03-26T13:49:03;20.60;;;4.43;;
35126;SDS011;21300;52.006;5.798;2023-03-26T13:51:34;18.42;;;3.50;;
35126;SDS011;21300;52.006;5.798;2023-03-26T13:54:22;24.27;;;4.40;;
35126;SDS011;21300;52.006;5.798;2023-03-26T13:59:57;14.82;;;2.67;;
35126;SDS011;21300;52.006;5.798;2023-03-26T14:05:14;19.33;;;3.20;;
35126;SDS011;21300;52.006;5.798;2023-03-26T14:08:02;15.43;;;3.50;;
35126;SDS011;21300;52.006;5.798;2023-03-26T14:10:36;16.55;;;3.05;;
35126;SDS011;21300;52.006;5.798;2023-03-26T14:15:55;10.95;;;2.92;;
35126;SDS011;21300;52.006;5.798;2023-03-26T14:18:32;15.63;;;3.15;;
35126;SDS011;21300;52.006;5.798;2023-03-26T14:40:27;13.48;;;2.40;;
35126;SDS011;21300;52.006;5.798;2023-03-26T14:46:01;12.02;;;2.50;;
35126;SDS011;21300;52.006;5.798;2023-03-26T14:48:51;16.30;;;2.95;;
35126;SDS011;21300;52.006;5.798;2023-03-26T14:53:59;13.27;;;3.72;;
35126;SDS011;21300;52.006;5.798;2023-03-26T14:59:26;12.55;;;2.45;;
35126;SDS011;21300;52.006;5.798;2023-03-26T15:02:28;10.15;;;2.45;;
35126;SDS011;21300;52.006;5.798;2023-03-26T15:13:52;11.88;;;2.70;;
35126;SDS011;21300;52.006;5.798;2023-03-26T15:19:19;12.00;;;2.20;;
35126;SDS011;21300;52.006;5.798;2023-03-26T15:33:36;16.63;;;1.80;;
35126;SDS011;21300;52.006;5.798;2023-03-26T15:39:07;13.75;;;2.83;;
35126;SDS011;21300;52.006;5.798;2023-03-26T15:47:36;15.07;;;3.25;;
35126;SDS011;21300;52.006;5.798;2023-03-26T15:53:12;15.35;;;2.10;;
35126;SDS011;21300;52.006;5.798;2023-03-26T16:07:36;16.48;;;2.63;;
35126;SDS011;21300;52.006;5.798;2023-03-26T16:18:53;12.38;;;2.25;;
35126;SDS011;21300;52.006;5.798;2023-03-26T16:21:43;16.13;;;3.00;;
35126;SDS011;21300;52.006;5.798;2023-03-26T16:24:19;9.20;;;1.98;;
35126;SDS011;21300;52.006;5.798;2023-03-26T16:32:40;10.15;;;1.45;;
35126;SDS011;21300;52.006;5.798;2023-03-26T16:40:25;10.30;;;1.92;;
35126;SDS011;21300;52.006;5.798;2023-03-26T16:51:53;14.77;;;1.92;;
35126;SDS011;21300;52.006;5.798;2023-03-26T16:54:42;14.10;;;2.00;;
35126;SDS011;21300;52.006;5.798;2023-03-26T17:05:19;12.75;;;2.28;;
35126;SDS011;21300;52.006;5.798;2023-03-26T17:16:42;8.98;;;1.33;;
35126;SDS011;21300;52.006;5.798;2023-03-26T17:24:50;10.57;;;1.73;;
35126;SDS011;21300;52.006;5.798;2023-03-26T17:27:44;14.48;;;1.60;;
35126;SDS011;21300;52.006;5.798;2023-03-26T17:33:20;6.38;;;1.45;;
35126;SDS011;21300;52.006;5.798;2023-03-26T17:35:47;8.18;;;1.40;;
35126;SDS011;21300;52.006;5.798;2023-03-26T17:49:13;4.35;;;1.25;;
35126;SDS011;21300;52.006;5.798;2023-03-26T17:51:55;12.93;;;1.83;;
35126;SDS011;21300;52.006;5.798;2023-03-26T17:54:45;7.50;;;1.42;;
35126;SDS011;21300;52.006;5.798;2023-03-26T17:57:15;8.82;;;1.98;;
35126;SDS011;21300;52.006;5.798;2023-03-26T18:02:56;7.57;;;1.63;;
35126;SDS011;21300;52.006;5.798;2023-03-26T18:05:26;11.75;;;1.35;;
35126;SDS011;21300;52.006;5.798;2023-03-26T18:11:17;15.48;;;1.67;;
35126;SDS011;21300;52.006;5.798;2023-03-26T18:16:47;7.50;;;1.33;;
35126;SDS011;21300;52.006;5.798;2023-03-26T18:19:16;4.95;;;1.05;;
35126;SDS011;21300;52.006;5.798;2023-03-26T18:21:44;14.27;;;2.53;;
35126;SDS011;21300;52.006;5.798;2023-03-26T18:24:16;11.32;;;1.35;;
35126;SDS011;21300;52.006;5.798;2023-03-26T18:26:55;9.80;;;1.33;;
35126;SDS011;21300;52.006;5.798;2023-03-26T18:29:28;8.73;;;1.27;;
35126;SDS011;21300;52.006;5.798;2023-03-26T18:31:59;9.45;;;1.60;;
35126;SDS011;21300;52.006;5.798;2023-03-26T18:34:32;12.85;;;2.20;;
35126;SDS011;21300;52.006;5.798;2023-03-26T18:42:23;7.82;;;1.33;;
35126;SDS011;21300;52.006;5.798;2023-03-26T18:44:49;8.85;;;1.58;;
35126;SDS011;21300;52.006;5.798;2023-03-26T18:47:16;9.02;;;1.90;;
35126;SDS011;21300;52.006;5.798;2023-03-26T18:49:43;12.05;;;1.50;;
35126;SDS011;21300;52.006;5.798;2023-03-26T18:52:14;10.48;;;1.60;;
35126;SDS011;21300;52.006;5.798;2023-03-26T18:54:42;6.63;;;1.20;;
35126;SDS011;21300;52.006;5.798;2023-03-26T18:57:10;8.35;;;1.48;;
35126;SDS011;21300;52.006;5.798;2023-03-26T18:59:48;9.55;;;1.70;;
35126;SDS011;21300;52.006;5.798;2023-03-26T19:02:15;7.97;;;1.33;;
35126;SDS011;21300;52.006;5.798;2023-03-26T19:04:42;10.68;;;3.17;;
35126;SDS011;21300;52.006;5.798;2023-03-26T19:07:13;5.88;;;1.13;;
35126;SDS011;21300;52.006;5.798;2023-03-26T19:09:48;11.98;;;1.50;;
35126;SDS011;21300;52.006;5.798;2023-03-26T19:12:28;10.43;;;1.13;;
35126;SDS011;21300;52.006;5.798;2023-03-26T19:17:37;10.98;;;1.50;;
35126;SDS011;21300;52.006;5.798;2023-03-26T19:20:27;9.70;;;1.95;;
35126;SDS011;21300;52.006;5.798;2023-03-26T19:22:57;9.68;;;1.38;;
35126;SDS011;21300;52.006;5.798;2023-03-26T19:25:42;11.10;;;1.30;;
35126;SDS011;21300;52.006;5.798;2023-03-26T19:28:34;9.38;;;1.60;;
35126;SDS011;21300;52.006;5.798;2023-03-26T19:33:53;11.95;;;1.67;;
35126;SDS011;21300;52.006;5.798;2023-03-26T19:36:49;14.32;;;1.98;;
35126;SDS011;21300;52.006;5.798;2023-03-26T19:39:22;10.30;;;1.40;;
35126;SDS011;21300;52.006;5.798;2023-03-26T19:41:50;8.00;;;1.30;;
35126;SDS011;21300;52.006;5.798;2023-03-26T19:44:24;11.20;;;1.50;;
35126;SDS011;21300;52.006;5.798;2023-03-26T19:46:59;6.88;;;1.55;;
35126;SDS011;21300;52.006;5.798;2023-03-26T19:49:28;12.23;;;1.50;;
35126;SDS011;21300;52.006;5.798;2023-03-26T19:52:02;9.70;;;1.73;;
35126;SDS011;21300;52.006;5.798;2023-03-26T19:54:58;6.70;;;1.65;;
35126;SDS011;21300;52.006;5.798;2023-03-26T19:57:26;9.50;;;1.45;;
35126;SDS011;21300;52.006;5.798;2023-03-26T19:59:56;8.52;;;1.73;;
35126;SDS011;21300;52.006;5.798;2023-03-26T20:02:22;13.68;;;2.28;;
35126;SDS011;21300;52.006;5.798;2023-03-26T20:04:48;14.43;;;1.52;;
35126;SDS011;21300;52.006;5.798;2023-03-26T20:07:15;8.82;;;1.40;;
35126;SDS011;21300;52.006;5.798;2023-03-26T20:09:43;13.30;;;1.80;;
35126;SDS011;21300;52.006;5.798;2023-03-26T20:12:09;12.90;;;1.98;;
35126;SDS011;21300;52.006;5.798;2023-03-26T20:14:39;7.43;;;1.30;;
35126;SDS011;21300;52.006;5.798;2023-03-26T20:17:14;11.57;;;1.63;;
35126;SDS011;21300;52.006;5.798;2023-03-26T20:19:42;8.52;;;1.35;;
35126;SDS011;21300;52.006;5.798;2023-03-26T20:22:10;9.07;;;1.50;;
35126;SDS011;21300;52.006;5.798;2023-03-26T20:24:42;9.15;;;1.55;;
35126;SDS011;21300;52.006;5.798;2023-03-26T20:27:09;10.05;;;1.88;;
35126;SDS011;21300;52.006;5.798;2023-03-26T20:29:36;7.00;;;1.30;;
35126;SDS011;21300;52.006;5.798;2023-03-26T20:32:02;10.50;;;1.60;;
35126;SDS011;21300;52.006;5.798;2023-03-26T20:34:30;9.55;;;1.63;;
35126;SDS011;21300;52.006;5.798;2023-03-26T20:36:56;8.35;;;1.30;;
35126;SDS011;21300;52.006;5.798;2023-03-26T20:39:22;12.23;;;1.52;;
35126;SDS011;21300;52.006;5.798;2023-03-26T20:41:48;7.72;;;1.80;;
35126;SDS011;21300;52.006;5.798;2023-03-26T20:44:16;13.27;;;1.48;;
35126;SDS011;21300;52.006;5.798;2023-03-26T20:46:43;10.13;;;1.67;;
35126;SDS011;21300;52.006;5.798;2023-03-26T20:49:10;9.90;;;1.45;;
35126;SDS011;21300;52.006;5.798;2023-03-26T20:51:37;11.52;;;1.85;;
35126;SDS011;21300;52.006;5.798;2023-03-26T20:54:06;11.18;;;1.90;;
35126;SDS011;21300;52.006;5.798;2023-03-26T20:56:47;11.32;;;1.70;;
35126;SDS011;21300;52.006;5.798;2023-03-26T20:59:18;9.98;;;1.50;;
35126;SDS011;21300;52.006;5.798;2023-03-26T21:01:45;12.77;;;1.60;;
35126;SDS011;21300;52.006;5.798;2023-03-26T21:04:12;7.30;;;1.10;;